Time;durP1;ratioP1;P1;durP2;ratioP2;P2;SDS_P1;SDS_P2;PMS_P1;PMS_P2;Temp;Humidity;BMP_temperature;BMP_pressure;BME280_temperature;BME280_humidity;BME280_pressure;Samples;Min_cycle;Max_cycle;Signal;HPM_P1;HPM_P2
2023/06/13 00:00:44;;;;;;;8.88;4.40;;;;;;;22.22;33.64;101265.75;5026903;28;20300;-81
2023/06/13 00:03:13;;;;;;;7.32;4.43;;;;;;;22.20;33.50;101259.66;5033194;28;20033;-82
2023/06/13 00:05:38;;;;;;;;;;;;;;;22.27;33.48;101258.75;5035455;28;20375;-81
2023/06/13 00:08:04;;;;;;;7.50;4.60;;;;;;;22.15;33.90;101261.06;5031473;28;19952;-82
2023/06/13 00:10:30;;;;;;;8.65;4.43;;;;;;;22.13;33.76;101263.13;5043611;28;20108;-82
2023/06/13 00:12:55;;;;;;;5.73;4.43;;;;;;;22.10;33.58;101260.78;5026873;28;20054;-82
2023/06/13 00:15:20;;;;;;;6.57;4.27;;;;;;;22.04;33.95;101257.97;5031676;28;20277;-82
2023/06/13 00:17:47;;;;;;;7.10;4.18;;;;;;;21.99;33.98;101251.22;5031647;28;20292;-81
2023/06/13 00:20:13;;;;;;;6.32;4.70;;;;;;;21.97;33.74;101249.75;5033004;28;20431;-83
2023/06/13 00:22:39;;;;;;;10.05;4.40;;;;;;;21.93;34.28;101256.53;5037084;28;20046;-82
2023/06/13 00:25:05;;;;;;;6.57;4.50;;;;;;;21.89;34.11;101257.94;5025026;28;20052;-81
2023/06/13 00:27:32;;;;;;;7.90;4.65;;;;;;;21.81;34.18;101251.56;5034978;28;20100;-82
2023/06/13 00:29:57;;;;;;;6.90;4.47;;;;;;;21.77;34.58;101250.25;5038028;28;20478;-82
2023/06/13 00:32:23;;;;;;;6.97;4.38;;;;;;;21.70;34.30;101241.19;5030099;28;20034;-82
2023/06/13 00:34:48;;;;;;;5.07;4.43;;;;;;;21.63;34.15;101242.91;5028192;28;20037;-82
2023/06/13 00:37:14;;;;;;;5.85;4.03;;;;;;;21.68;34.54;101262.13;5030452;28;20510;-82
2023/06/13 00:39:40;;;;;;;7.72;4.00;;;;;;;21.62;34.88;101260.19;5033300;28;20022;-82
2023/06/13 00:42:06;;;;;;;7.25;4.30;;;;;;;21.56;34.57;101253.63;5040139;28;20407;-82
2023/06/13 00:44:32;;;;;;;6.53;4.40;;;;;;;21.53;35.01;101254.00;5037686;28;20100;-82
2023/06/13 00:46:58;;;;;;;6.35;4.63;;;;;;;21.49;34.94;101255.38;5044110;28;20033;-82
2023/06/13 00:49:25;;;;;;;7.68;4.50;;;;;;;21.45;34.95;101254.03;5041791;28;20030;-81
2023/06/13 00:51:51;;;;;;;7.25;4.65;;;;;;;21.44;35.10;101257.72;5030928;28;20025;-82
2023/06/13 00:54:18;;;;;;;5.82;4.70;;;;;;;21.39;35.23;101257.44;5040589;28;20041;-81
2023/06/13 00:56:45;;;;;;;7.40;4.45;;;;;;;21.33;35.39;101248.16;5045501;28;20029;-82
2023/06/13 00:59:12;;;;;;;4.80;4.18;;;;;;;21.23;35.40;101252.94;5029480;28;20034;-82
2023/06/13 01:01:40;;;;;;;9.50;4.22;;;;;;;21.20;35.61;101259.56;5030488;28;20033;-82
2023/06/13 01:04:07;;;;;;;6.35;4.15;;;;;;;21.17;35.75;101254.53;5030977;28;20864;-82
2023/06/13 01:06:38;;;;;;;9.38;4.47;;;;;;;21.12;35.67;101254.22;5031293;28;20120;-83
2023/06/13 01:09:05;;;;;;;5.32;3.85;;;;;;;21.11;36.03;101247.13;5029851;28;20084;-81
2023/06/13 01:11:41;;;;;;;7.32;4.35;;;;;;;21.02;36.06;101246.31;5031857;28;20029;-81
2023/06/13 01:14:34;;;;;;;9.18;4.38;;;;;;;21.01;36.28;101244.63;5028023;28;20038;-82
2023/06/13 01:17:07;;;;;;;11.02;5.15;;;;;;;20.90;36.70;101242.34;5024058;28;20400;-82
2023/06/13 01:19:40;;;;;;;8.18;4.75;;;;;;;20.73;36.96;101222.66;5032524;28;20471;-82
2023/06/13 01:22:10;;;;;;;5.05;4.05;;;;;;;20.64;36.61;101207.53;5031201;28;20042;-82
2023/06/13 01:25:07;;;;;;;11.48;4.53;;;;;;;20.82;36.83;101248.59;5033874;28;20032;-81
2023/06/13 01:27:33;;;;;;;4.88;4.30;;;;;;;;;;5033070;28;20476;-81
2023/06/13 01:30:00;;;;;;;7.85;4.30;;;;;;;20.63;37.02;101247.19;5032598;28;20040;-81
2023/06/13 01:32:27;;;;;;;6.22;4.47;;;;;;;20.61;37.51;101254.56;5028648;28;20029;-82
2023/06/13 01:34:53;;;;;;;6.90;4.30;;;;;;;20.57;37.35;101245.13;5028459;28;20021;-81
2023/06/13 01:37:18;;;;;;;8.02;4.38;;;;;;;20.54;37.75;101255.44;5031799;28;20079;-83
2023/06/13 01:39:44;;;;;;;5.85;4.45;;;;;;;20.54;37.90;101245.47;5029088;28;20029;-83
2023/06/13 01:42:10;;;;;;;5.93;4.10;;;;;;;20.48;37.67;101246.16;5027876;28;20033;-83
2023/06/13 01:44:35;;;;;;;6.90;4.30;;;;;;;20.42;38.42;101244.19;5027972;28;20034;-82
2023/06/13 01:47:26;;;;;;;8.02;4.30;;;;;;;20.37;37.97;101241.97;5024708;28;20060;-82
2023/06/13 01:50:15;;;;;;;6.13;4.07;;;;;;;20.33;37.84;101238.78;5032817;28;20030;-82
2023/06/13 01:53:17;;;;;;;7.22;4.40;;;;;;;20.31;38.06;101243.50;5030866;28;20026;-82
2023/06/13 01:55:47;;;;;;;8.45;4.43;;;;;;;20.19;38.72;101235.97;5034393;28;20069;-81
2023/06/13 01:58:19;;;;;;;6.18;4.53;;;;;;;20.13;38.90;101232.94;5035049;28;20060;-82
2023/06/13 02:00:47;;;;;;;8.45;4.85;;;;;;;20.07;39.53;101238.16;5034503;28;20057;-82
2023/06/13 02:03:13;;;;;;;5.57;4.55;;;;;;;20.00;39.24;101234.44;5030412;28;20047;-82
2023/06/13 02:05:38;;;;;;;11.02;4.90;;;;;;;19.92;39.50;101236.16;5033167;28;20021;-82
2023/06/13 02:08:04;;;;;;;7.25;4.78;;;;;;;19.88;39.69;101237.47;5032096;28;20108;-82
2023/06/13 02:10:29;;;;;;;7.30;5.22;;;;;;;19.85;39.75;101234.28;5035383;28;20021;-82
2023/06/13 02:12:54;;;;;;;5.18;4.60;;;;;;;19.72;39.92;101224.84;5027863;28;20048;-81
2023/06/13 02:15:20;;;;;;;6.68;4.45;;;;;;;19.73;40.34;101242.69;5034580;28;20441;-82
2023/06/13 02:17:46;;;;;;;8.85;4.90;;;;;;;19.66;40.41;101246.22;5035405;28;20032;-81
2023/06/13 02:20:12;;;;;;;7.23;4.67;;;;;;;19.60;40.59;101232.41;5029407;28;20097;-82
2023/06/13 02:22:37;;;;;;;6.38;4.40;;;;;;;19.60;41.00;101239.63;5036598;28;20719;-83
2023/06/13 02:25:04;;;;;;;6.68;4.60;;;;;;;19.49;41.12;101226.50;5036615;28;20048;-83
2023/06/13 02:27:29;;;;;;;9.10;4.95;;;;;;;19.48;41.28;101235.59;5036029;28;20482;-82
2023/06/13 02:29:55;;;;;;;7.88;5.07;;;;;;;19.41;41.38;101238.94;5033557;28;20026;-82
2023/06/13 02:32:22;;;;;;;9.43;4.97;;;;;;;19.38;41.41;101238.44;5035562;28;20026;-81
2023/06/13 02:34:48;;;;;;;8.32;5.00;;;;;;;19.31;41.78;101242.81;5036209;28;20742;-82
2023/06/13 02:37:13;;;;;;;7.65;4.80;;;;;;;19.28;41.83;101235.88;5031127;28;20040;-82
2023/06/13 02:39:38;;;;;;;7.55;5.07;;;;;;;19.25;41.84;101241.59;5038016;28;20085;-81
2023/06/13 02:42:04;;;;;;;6.67;5.20;;;;;;;19.12;42.01;101234.03;5047829;28;20028;-82
2023/06/13 02:44:29;;;;;;;15.82;5.50;;;;;;;19.11;42.56;101243.09;5041279;28;20830;-81
2023/06/13 02:46:55;;;;;;;7.50;5.40;;;;;;;19.04;42.56;101239.38;5042217;28;20023;-83
2023/06/13 02:49:20;;;;;;;10.02;5.28;;;;;;;19.04;42.28;101239.38;5039954;28;20275;-82
2023/06/13 02:51:45;;;;;;;8.23;4.60;;;;;;;19.05;42.44;101246.44;5031582;28;20057;-81
2023/06/13 02:54:11;;;;;;;7.80;4.80;;;;;;;18.97;42.72;101244.56;5038909;28;20298;-82
2023/06/13 02:56:36;;;;;;;8.38;5.20;;;;;;;18.97;42.71;101243.75;5039272;28;20288;-83
2023/06/13 02:59:01;;;;;;;6.68;4.65;;;;;;;18.86;43.09;101240.31;5038951;28;20030;-82
2023/06/13 03:01:27;;;;;;;10.93;5.40;;;;;;;18.81;43.35;101241.78;5029480;28;20037;-82
2023/06/13 03:03:52;;;;;;;6.38;4.72;;;;;;;18.80;43.35;101234.69;5036198;28;20029;-82
2023/06/13 03:06:18;;;;;;;7.40;4.90;;;;;;;18.82;43.29;101238.09;5035521;28;20026;-82
2023/06/13 03:08:44;;;;;;;7.90;5.10;;;;;;;18.77;43.44;101243.09;5031178;28;20033;-81
2023/06/13 03:11:12;;;;;;;8.95;4.70;;;;;;;18.71;43.60;101241.06;5033745;28;20026;-81
2023/06/13 03:13:38;;;;;;;7.30;5.00;;;;;;;18.67;43.72;101241.38;5040175;28;20376;-81
2023/06/13 03:16:04;;;;;;;8.27;5.38;;;;;;;18.63;43.93;101244.56;5036854;28;20051;-82
2023/06/13 03:18:29;;;;;;;6.15;5.15;;;;;;;18.58;44.06;101242.34;5040571;28;20547;-81
2023/06/13 03:20:54;;;;;;;10.60;5.82;;;;;;;18.51;44.68;101240.47;5038803;28;20073;-82
2023/06/13 03:23:20;;;;;;;8.73;5.05;;;;;;;18.48;44.25;101247.88;5038504;28;20048;-82
2023/06/13 03:25:45;;;;;;;9.82;5.68;;;;;;;18.40;44.58;101245.13;5045672;28;20030;-82
2023/06/13 03:28:11;;;;;;;12.93;5.50;;;;;;;18.40;44.72;101249.63;5034372;28;20114;-81
2023/06/13 03:30:37;;;;;;;9.60;5.55;;;;;;;18.37;45.02;101242.75;5038233;28;20030;-82
2023/06/13 03:33:02;;;;;;;7.30;5.20;;;;;;;18.32;45.24;101242.38;5028555;28;20397;-80
2023/06/13 03:35:28;;;;;;;12.35;6.07;;;;;;;18.31;45.23;101235.31;5036662;28;20083;-81
2023/06/13 03:37:53;;;;;;;9.15;5.82;;;;;;;18.29;45.53;101242.69;5040691;28;20462;-82
2023/06/13 03:40:18;;;;;;;7.60;5.63;;;;;;;18.25;45.50;101241.31;5033425;28;20029;-82
2023/06/13 03:42:44;;;;;;;10.32;5.70;;;;;;;18.24;45.68;101235.09;5040379;28;20311;-82
2023/06/13 03:45:10;;;;;;;7.35;5.78;;;;;;;18.23;45.62;101243.31;5038371;28;20018;-81
2023/06/13 03:47:35;;;;;;;7.35;5.95;;;;;;;18.16;45.88;101234.22;5040202;28;20022;-81
2023/06/13 03:50:00;;;;;;;8.30;6.20;;;;;;;18.15;46.08;101235.19;5025972;28;20089;-81
2023/06/13 03:52:26;;;;;;;7.07;5.38;;;;;;;18.18;45.89;101240.25;5039640;28;20021;-81
2023/06/13 03:54:51;;;;;;;10.25;5.93;;;;;;;18.12;45.77;101231.00;5032452;28;20029;-82
2023/06/13 03:57:17;;;;;;;7.32;5.68;;;;;;;18.11;45.78;101232.81;5026594;28;20037;-83
2023/06/13 03:59:42;;;;;;;7.07;5.75;;;;;;;18.08;46.31;101241.19;5020786;28;20353;-82
2023/06/13 04:02:07;;;;;;;10.45;6.00;;;;;;;18.04;46.27;101234.47;5038396;28;20026;-82
2023/06/13 04:04:33;;;;;;;9.88;6.05;;;;;;;18.08;46.25;101240.34;5031339;28;20038;-82
2023/06/13 04:07:04;;;;;;;8.85;5.57;;;;;;;18.02;46.65;101235.59;5039090;28;20083;-81
2023/06/13 04:09:29;;;;;;;8.77;6.15;;;;;;;18.02;46.58;101238.28;5039790;28;20049;-82
2023/06/13 04:11:55;;;;;;;6.80;6.10;;;;;;;18.07;46.45;101246.75;5033542;28;20483;-82
2023/06/13 04:14:20;;;;;;;9.90;6.05;;;;;;;18.02;46.90;101247.22;5041102;28;20029;-82
2023/06/13 04:16:45;;;;;;;8.90;6.05;;;;;;;18.07;46.70;101239.53;5038547;28;20044;-82
2023/06/13 04:19:14;;;;;;;10.85;5.55;;;;;;;18.02;46.81;101239.16;5036980;28;20029;-82
2023/06/13 04:21:39;;;;;;;9.82;5.85;;;;;;;18.13;47.08;101254.16;5038211;28;20045;-81
2023/06/13 04:24:05;;;;;;;9.80;6.07;;;;;;;18.14;46.74;101247.81;5032146;28;20387;-82
2023/06/13 04:26:30;;;;;;;8.52;6.07;;;;;;;18.14;46.51;101245.13;5037581;28;20017;-82
2023/06/13 04:28:56;;;;;;;8.07;6.40;;;;;;;18.18;46.53;101248.31;5048732;28;20029;-81
2023/06/13 04:31:21;;;;;;;9.85;6.03;;;;;;;18.13;46.87;101243.41;5046994;28;20017;-82
2023/06/13 04:33:47;;;;;;;7.72;5.65;;;;;;;18.20;46.57;101249.00;5032388;28;20663;-82
2023/06/13 04:36:12;;;;;;;9.63;7.07;;;;;;;18.21;46.63;101248.84;5047424;28;20025;-81
2023/06/13 04:38:39;;;;;;;9.65;6.35;;;;;;;18.21;47.04;101256.09;5047802;28;20030;-82
2023/06/13 04:41:09;;;;;;;8.82;6.03;;;;;;;18.22;46.87;101255.94;5041783;28;20415;-82
2023/06/13 04:43:35;;;;;;;8.85;6.93;;;;;;;18.30;46.47;101261.38;5037929;28;20072;-82
2023/06/13 04:46:03;;;;;;;9.50;6.43;;;;;;;18.31;46.76;101257.66;5031395;28;20400;-82
2023/06/13 04:48:30;;;;;;;10.98;6.53;;;;;;;18.39;46.80;101259.56;5037783;28;20595;-82
2023/06/13 04:50:58;;;;;;;12.95;6.75;;;;;;;18.43;46.69;101260.09;5035028;28;20036;-82
2023/06/13 04:53:23;;;;;;;8.13;6.40;;;;;;;18.51;46.83;101262.81;5033456;28;20475;-82
2023/06/13 04:55:49;;;;;;;9.77;6.80;;;;;;;18.56;46.58;101260.50;5021716;28;20030;-82
2023/06/13 04:58:17;;;;;;;10.63;6.82;;;;;;;18.71;46.84;101265.28;5033592;28;20022;-82
2023/06/13 05:00:48;;;;;;;10.43;7.33;;;;;;;18.79;46.41;101260.78;5036292;28;20033;-82
2023/06/13 05:03:16;;;;;;;14.80;7.93;;;;;;;18.86;45.89;101269.09;5020288;28;20033;-82
2023/06/13 05:05:43;;;;;;;11.32;8.40;;;;;;;18.95;45.88;101272.66;5031567;28;20021;-83
2023/06/13 05:08:09;;;;;;;10.90;7.70;;;;;;;19.05;46.11;101273.34;5035249;28;20037;-82
2023/06/13 05:10:34;;;;;;;11.68;7.70;;;;;;;19.15;45.51;101275.91;5036906;28;20028;-82
2023/06/13 05:13:01;;;;;;;11.10;7.73;;;;;;;19.23;45.38;101276.81;5036123;28;20024;-82
2023/06/13 05:15:26;;;;;;;14.00;7.28;;;;;;;19.34;45.45;101272.13;5040870;28;20273;-82
2023/06/13 05:17:54;;;;;;;12.60;7.40;;;;;;;19.34;45.21;101275.63;5034982;28;20017;-82
2023/06/13 05:20:22;;;;;;;12.32;7.38;;;;;;;19.37;44.73;101278.00;5031813;28;20078;-82
2023/06/13 05:22:49;;;;;;;13.15;7.63;;;;;;;19.36;44.86;101278.16;5037923;28;20498;-83
2023/06/13 05:25:15;;;;;;;11.90;6.85;;;;;;;19.39;45.04;101278.69;5038089;28;20033;-82
2023/06/13 05:27:40;;;;;;;10.13;6.97;;;;;;;19.44;45.26;101282.75;5038062;28;20488;-81
2023/06/13 05:30:09;;;;;;;10.95;6.32;;;;;;;19.58;44.63;101288.34;5034583;28;20040;-82
2023/06/13 05:32:34;;;;;;;12.52;7.10;;;;;;;19.69;44.58;101289.84;5037405;28;20053;-82
2023/06/13 05:35:00;;;;;;;7.27;6.40;;;;;;;19.83;44.23;101272.19;5031128;28;20025;-82
2023/06/13 05:37:25;;;;;;;11.55;6.78;;;;;;;20.02;43.58;101278.25;5038388;28;20288;-81
2023/06/13 05:39:51;;;;;;;11.25;7.03;;;;;;;20.21;43.17;101280.59;5039424;28;20025;-82
2023/06/13 05:42:16;;;;;;;10.13;6.70;;;;;;;20.36;43.00;101285.31;5039128;28;20036;-82
2023/06/13 05:44:41;;;;;;;8.65;6.32;;;;;;;20.53;42.53;101281.56;5034091;28;20284;-82
2023/06/13 05:47:07;;;;;;;14.80;6.87;;;;;;;20.79;42.44;101284.06;5045370;28;20071;-82
2023/06/13 05:49:32;;;;;;;9.55;6.88;;;;;;;20.88;41.58;101284.84;5038026;28;20295;-82
2023/06/13 05:51:57;;;;;;;10.57;6.70;;;;;;;20.97;41.32;101281.13;5035745;28;20018;-82
2023/06/13 05:54:23;;;;;;;12.00;6.72;;;;;;;21.26;41.19;101287.72;5037545;28;20053;-80
2023/06/13 05:56:48;;;;;;;9.25;6.53;;;;;;;21.38;40.57;101290.88;5034546;28;20039;-81
2023/06/13 05:59:14;;;;;;;10.00;6.70;;;;;;;21.62;40.62;101281.81;5039376;28;20022;-81
2023/06/13 06:01:41;;;;;;;10.57;6.50;;;;;;;21.83;39.96;101274.88;5040806;28;20291;-82
2023/06/13 06:04:07;;;;;;;8.80;6.30;;;;;;;21.97;39.45;101282.22;5035814;28;20064;-82
2023/06/13 06:06:32;;;;;;;14.23;5.93;;;;;;;22.17;39.48;101283.38;5043162;28;20021;-82
2023/06/13 06:08:57;;;;;;;9.45;5.85;;;;;;;22.33;38.78;101289.66;5045461;28;20292;-82
2023/06/13 06:11:23;;;;;;;10.17;6.10;;;;;;;22.55;38.46;101282.53;5044430;28;20113;-83
2023/06/13 06:13:48;;;;;;;9.80;6.10;;;;;;;22.77;38.16;101290.75;5043980;28;20288;-81
2023/06/13 06:16:13;;;;;;;8.23;5.63;;;;;;;22.88;37.83;101291.13;5031239;28;20468;-82
2023/06/13 06:18:41;;;;;;;10.20;6.32;;;;;;;23.08;37.11;101283.28;5033790;28;20026;-82
2023/06/13 06:21:06;;;;;;;8.95;5.70;;;;;;;23.21;36.99;101287.16;5033991;28;20056;-81
2023/06/13 06:23:32;;;;;;;11.43;6.22;;;;;;;23.31;36.91;101284.97;5046247;28;20104;-80
2023/06/13 06:25:57;;;;;;;10.25;6.10;;;;;;;23.51;36.94;101273.53;5040746;28;20395;-81
2023/06/13 06:28:22;;;;;;;16.07;5.83;;;;;;;23.66;36.52;101293.28;5039379;28;20028;-81
2023/06/13 06:30:48;;;;;;;12.43;5.83;;;;;;;23.69;35.64;101279.34;5045528;28;20269;-82
2023/06/13 06:33:14;;;;;;;10.50;6.00;;;;;;;23.72;35.72;101289.81;5045272;28;20284;-81
2023/06/13 06:35:39;;;;;;;9.82;5.72;;;;;;;23.84;35.84;101292.88;5041266;28;20511;-81
2023/06/13 06:38:04;;;;;;;7.80;5.63;;;;;;;24.05;35.76;101288.44;5036100;28;20030;-81
2023/06/13 06:40:30;;;;;;;13.18;6.00;;;;;;;24.04;35.57;101290.31;5040600;28;20018;-82
2023/06/13 06:42:55;;;;;;;7.45;5.72;;;;;;;24.03;35.05;101280.50;5040380;28;20060;-81
2023/06/13 06:45:21;;;;;;;15.37;6.17;;;;;;;24.30;34.72;101278.84;5040043;28;20068;-81
2023/06/13 06:47:46;;;;;;;11.65;5.57;;;;;;;24.65;35.04;101289.75;5032623;28;20482;-82
2023/06/13 06:50:12;;;;;;;9.50;5.70;;;;;;;24.82;34.60;101275.84;5039036;28;20057;-81
2023/06/13 06:52:37;;;;;;;10.25;5.55;;;;;;;24.93;33.88;101275.25;5029303;28;20285;-82
2023/06/13 06:55:03;;;;;;;10.97;6.50;;;;;;;25.06;33.52;101277.19;5023925;28;20026;-81
2023/06/13 06:57:28;;;;;;;10.95;5.35;;;;;;;25.27;34.30;101271.66;5037729;28;20700;-80
2023/06/13 06:59:53;;;;;;;11.13;5.70;;;;;;;25.52;33.78;101275.69;5036436;28;20033;-81
2023/06/13 07:02:19;;;;;;;8.95;5.10;;;;;;;25.85;33.87;101276.56;5038133;28;20326;-81
2023/06/13 07:04:45;;;;;;;11.63;5.57;;;;;;;26.01;32.72;101278.09;5037711;28;20573;-82
2023/06/13 07:07:11;;;;;;;7.95;5.72;;;;;;;26.11;32.55;101272.19;5030335;28;20034;-82
2023/06/13 07:09:36;;;;;;;9.57;5.55;;;;;;;26.45;32.01;101278.44;5037281;28;20480;-81
2023/06/13 07:12:01;;;;;;;9.45;6.35;;;;;;;26.56;31.79;101274.22;5035518;28;20551;-81
2023/06/13 07:14:27;;;;;;;7.15;5.60;;;;;;;26.52;31.98;101282.00;5034007;28;20028;-81
2023/06/13 07:16:55;;;;;;;8.60;5.63;;;;;;;26.47;31.11;101280.97;5037238;28;20029;-83
2023/06/13 07:19:21;;;;;;;12.80;5.20;;;;;;;26.71;31.23;101288.50;5039020;28;20030;-81
2023/06/13 07:21:47;;;;;;;10.52;5.75;;;;;;;27.00;31.41;101280.00;5036445;28;20385;-81
2023/06/13 07:24:12;;;;;;;11.32;5.43;;;;;;;27.02;31.15;101278.72;5030210;28;20038;-80
2023/06/13 07:26:37;;;;;;;7.90;4.75;;;;;;;27.31;30.16;101287.41;5035365;28;20036;-81
2023/06/13 07:29:03;;;;;;;7.53;5.18;;;;;;;27.34;30.12;101284.25;5034506;28;20026;-83
2023/06/13 07:31:29;;;;;;;11.20;5.38;;;;;;;27.32;30.03;101283.66;5030517;28;20100;-81
2023/06/13 07:33:54;;;;;;;9.15;5.20;;;;;;;27.10;30.14;101283.09;5030614;28;20075;-82
2023/06/13 07:36:20;;;;;;;6.78;4.72;;;;;;;27.29;30.18;101282.16;5023592;28;20025;-82
2023/06/13 07:38:45;;;;;;;8.80;5.13;;;;;;;27.54;30.60;101284.13;5035841;28;20032;-83
2023/06/13 07:41:10;;;;;;;8.73;5.13;;;;;;;27.72;29.99;101277.09;5037055;28;20302;-82
2023/06/13 07:43:36;;;;;;;12.48;5.53;;;;;;;27.79;29.26;101281.44;5035781;28;20870;-82
2023/06/13 07:46:01;;;;;;;11.50;5.07;;;;;;;27.88;28.93;101282.84;5036221;28;20453;-82
2023/06/13 07:48:26;;;;;;;8.98;5.35;;;;;;;27.88;29.02;101269.19;5032988;28;20028;-83
2023/06/13 07:50:52;;;;;;;6.13;4.82;;;;;;;28.02;28.99;101275.41;5036895;28;20031;-81
2023/06/13 07:53:17;;;;;;;9.38;5.00;;;;;;;28.36;28.79;101275.09;5037011;28;20025;-82
2023/06/13 07:55:46;;;;;;;10.52;5.00;;;;;;;28.41;28.47;101280.72;5037022;28;20087;-82
2023/06/13 07:58:11;;;;;;;;;;;;;;;28.78;29.15;101287.06;5038372;28;20032;-83
2023/06/13 08:00:36;;;;;;;7.20;4.90;;;;;;;28.80;28.44;101284.13;5023924;28;20248;-83
2023/06/13 08:03:03;;;;;;;9.40;5.03;;;;;;;29.06;27.86;101280.22;5032392;28;20033;-83
2023/06/13 08:05:28;;;;;;;9.88;4.88;;;;;;;29.14;27.49;101282.66;5038985;28;20272;-83
2023/06/13 08:07:54;;;;;;;9.25;4.53;;;;;;;29.31;27.56;101273.78;5039242;28;20407;-83
2023/06/13 08:10:19;;;;;;;8.15;4.85;;;;;;;29.51;27.31;101285.31;5041115;28;20029;-83
2023/06/13 08:12:45;;;;;;;6.47;4.82;;;;;;;29.56;27.07;101278.28;5042222;28;20025;-83
2023/06/13 08:15:10;;;;;;;9.10;4.80;;;;;;;29.84;27.03;101280.41;5029335;28;20034;-83
2023/06/13 08:17:37;;;;;;;9.75;5.00;;;;;;;29.86;26.33;101281.84;5040166;28;20639;-83
2023/06/13 08:20:04;;;;;;;5.90;4.40;;;;;;;29.93;26.47;101283.63;5041365;28;20156;-82
2023/06/13 08:22:29;;;;;;;7.35;4.50;;;;;;;29.88;26.71;101281.63;5038035;28;20451;-83
2023/06/13 08:24:55;;;;;;;8.55;5.05;;;;;;;30.03;26.28;101273.75;5035520;28;20094;-82
2023/06/13 08:27:21;;;;;;;7.22;4.95;;;;;;;29.91;26.25;101272.94;5039272;28;20383;-82
2023/06/13 08:29:46;;;;;;;8.73;5.28;;;;;;;30.17;26.40;101276.28;5035768;28;20033;-82
2023/06/13 08:32:15;;;;;;;8.27;4.47;;;;;;;30.43;25.90;101272.25;5032124;28;20409;-82
2023/06/13 08:34:40;;;;;;;9.45;5.07;;;;;;;30.34;25.57;101276.38;5038691;28;20241;-82
2023/06/13 08:37:06;;;;;;;8.73;4.70;;;;;;;30.66;26.10;101273.25;5036731;28;20041;-83
2023/06/13 08:39:31;;;;;;;8.18;4.88;;;;;;;30.91;25.81;101273.81;5028156;28;20291;-83
2023/06/13 08:41:56;;;;;;;7.70;4.60;;;;;;;31.31;25.48;101262.00;5038233;28;20061;-82
2023/06/13 08:44:22;;;;;;;6.38;4.85;;;;;;;31.21;25.16;101263.69;5032879;28;20028;-82
2023/06/13 08:46:47;;;;;;;8.20;4.80;;;;;;;31.15;25.39;101263.59;5036592;28;20030;-83
2023/06/13 08:49:12;;;;;;;10.90;6.03;;;;;;;31.39;24.15;101257.19;5036411;28;20110;-83
2023/06/13 08:51:38;;;;;;;15.67;5.20;;;;;;;31.51;24.72;101261.56;5031620;28;20092;-83
2023/06/13 08:54:05;;;;;;;10.48;4.78;;;;;;;31.71;24.56;101260.25;5036206;28;20293;-82
2023/06/13 08:56:35;;;;;;;6.57;4.60;;;;;;;31.59;24.21;101251.25;5037085;28;20033;-82
2023/06/13 08:59:06;;;;;;;9.63;4.38;;;;;;;31.56;23.98;101259.97;5048303;28;20038;-82
2023/06/13 09:01:32;;;;;;;7.00;4.50;;;;;;;31.53;23.83;101256.66;5032788;28;20076;-83
2023/06/13 09:03:58;;;;;;;7.43;3.95;;;;;;;31.56;23.66;101240.75;5036398;28;20037;-84
2023/06/13 09:06:24;;;;;;;15.20;4.68;;;;;;;31.78;23.00;101246.34;5036735;28;20437;-83
2023/06/13 09:08:51;;;;;;;7.57;4.43;;;;;;;31.94;23.05;101247.41;5039728;28;20100;-83
2023/06/13 09:11:17;;;;;;;8.80;4.35;;;;;;;32.22;22.91;101244.56;5042591;28;20094;-83
2023/06/13 09:13:44;;;;;;;9.32;4.78;;;;;;;32.17;23.04;101239.00;5039403;28;20026;-82
2023/06/13 09:16:10;;;;;;;8.40;4.65;;;;;;;32.17;23.65;101230.75;5037600;28;20022;-83
2023/06/13 09:18:36;;;;;;;9.32;4.47;;;;;;;32.42;23.05;101246.75;5028613;28;20030;-83
2023/06/13 09:21:02;;;;;;;7.82;4.82;;;;;;;32.51;23.39;101236.19;5037269;28;20087;-84
2023/06/13 09:23:28;;;;;;;11.57;4.70;;;;;;;33.01;22.73;101250.84;5038500;28;20383;-84
2023/06/13 09:25:55;;;;;;;11.88;4.82;;;;;;;33.35;22.87;101248.72;5037448;28;20036;-82
2023/06/13 09:28:32;;;;;;;9.38;4.15;;;;;;;33.36;22.56;101244.06;5045904;28;20088;-82
2023/06/13 09:30:58;;;;;;;8.88;4.43;;;;;;;33.19;22.07;101239.50;5035553;28;20034;-82
2023/06/13 09:33:23;;;;;;;7.30;4.50;;;;;;;33.05;22.00;101246.47;5034041;28;20044;-82
2023/06/13 09:35:50;;;;;;;9.70;5.30;;;;;;;33.07;22.01;101227.75;5044431;28;20025;-83
2023/06/13 09:38:20;;;;;;;8.65;4.30;;;;;;;33.19;22.04;101228.50;5025508;28;20037;-83
2023/06/13 09:40:47;;;;;;;8.30;4.43;;;;;;;33.47;21.84;101236.72;5029598;28;20025;-83
2023/06/13 09:43:15;;;;;;;6.65;4.30;;;;;;;33.51;21.45;101237.88;5027456;28;20353;-83
2023/06/13 09:45:43;;;;;;;;;;;;;;;33.95;22.42;101234.09;5031997;28;20506;-83
2023/06/13 09:48:08;;;;;;;8.32;4.28;;;;;;;33.50;20.91;101245.28;5030389;28;20356;-82
2023/06/13 09:50:34;;;;;;;10.87;4.80;;;;;;;33.54;21.02;101234.56;5037949;28;20063;-83
2023/06/13 09:52:59;;;;;;;12.35;4.43;;;;;;;33.52;20.83;101229.31;5039274;28;20288;-82
2023/06/13 09:55:24;;;;;;;9.00;4.40;;;;;;;33.47;21.02;101231.22;5031663;28;20037;-82
2023/06/13 09:57:53;;;;;;;4.87;3.70;;;;;;;33.60;20.56;101230.78;5038448;28;20028;-82
2023/06/13 10:00:19;;;;;;;;;;;;;;;34.17;21.96;101233.94;5039015;28;20314;-82
2023/06/13 10:02:46;;;;;;;7.00;4.10;;;;;;;34.13;20.65;101225.38;5041044;28;19909;-82
2023/06/13 10:05:14;;;;;;;8.02;4.05;;;;;;;34.23;19.94;101233.75;5033568;28;20026;-82
2023/06/13 10:07:39;;;;;;;4.72;4.10;;;;;;;34.23;19.43;101224.66;5028945;28;20025;-83
2023/06/13 10:10:06;;;;;;;9.25;4.07;;;;;;;34.37;19.51;101216.72;5035860;28;20048;-82
2023/06/13 10:12:33;;;;;;;6.55;3.53;;;;;;;34.49;20.08;101214.56;5029640;28;20033;-83
2023/06/13 10:15:01;;;;;;;8.73;5.47;;;;;;;34.58;19.59;101223.97;5036188;28;20025;-82
2023/06/13 10:17:31;;;;;;;4.88;3.60;;;;;;;34.46;18.76;101221.44;5031390;28;20033;-82
2023/06/13 10:20:01;;;;;;;5.78;3.35;;;;;;;34.26;18.73;101218.59;5038464;28;20041;-83
2023/06/13 10:22:26;;;;;;;6.32;4.00;;;;;;;34.51;19.36;101217.03;5036544;28;20121;-83
2023/06/13 10:24:53;;;;;;;4.88;3.58;;;;;;;34.41;18.30;101221.44;5038344;28;20045;-83
2023/06/13 10:27:22;;;;;;;5.70;3.40;;;;;;;34.28;18.54;101221.91;5037512;28;20030;-82
2023/06/13 10:30:09;;;;;;;5.80;3.60;;;;;;;34.37;18.69;101223.06;5031160;28;20034;-83
2023/06/13 10:32:56;;;;;;;9.88;3.90;;;;;;;34.42;19.38;101219.50;5032559;28;20017;-83
2023/06/13 10:35:53;;;;;;;6.80;3.90;;;;;;;34.13;18.93;101228.16;5031891;28;20079;-83
2023/06/13 10:39:03;;;;;;;5.65;3.60;;;;;;;34.37;19.29;101223.06;5029328;28;20446;-83
2023/06/13 10:41:53;;;;;;;10.43;4.10;;;;;;;34.32;19.56;101217.50;5009513;28;20057;-83
2023/06/13 10:44:31;;;;;;;5.63;3.45;;;;;;;34.18;19.36;101219.91;5024907;28;20029;-83
2023/06/13 10:46:57;;;;;;;6.95;3.67;;;;;;;34.21;19.65;101213.88;5035187;28;20026;-82
2023/06/13 10:49:35;;;;;;;7.45;3.92;;;;;;;34.45;19.14;101219.78;5034674;28;20017;-83
2023/06/13 10:52:00;;;;;;;7.40;3.80;;;;;;;34.48;19.56;101208.22;5036582;28;20029;-83
2023/06/13 10:54:26;;;;;;;4.83;3.97;;;;;;;34.76;18.60;101210.84;5038739;28;20027;-84
2023/06/13 10:56:51;;;;;;;5.55;3.78;;;;;;;35.00;18.38;101206.47;5043287;28;20310;-82
2023/06/13 10:59:17;;;;;;;6.32;3.55;;;;;;;35.01;17.69;101208.13;5042077;28;20044;-82
2023/06/13 11:01:43;;;;;;;4.68;3.53;;;;;;;34.79;17.05;101213.88;5040960;28;20033;-83
2023/06/13 11:04:22;;;;;;;6.95;3.78;;;;;;;34.64;17.67;101202.75;5043122;28;20034;-84
2023/06/13 11:06:51;;;;;;;6.80;3.47;;;;;;;34.46;17.21;101193.88;5032305;28;20029;-83
2023/06/13 11:09:23;;;;;;;5.68;3.20;;;;;;;34.44;17.34;101193.31;5039583;28;20574;-83
2023/06/13 11:12:01;;;;;;;4.63;3.70;;;;;;;34.55;16.89;101204.38;5038651;28;20024;-83
2023/06/13 11:14:31;;;;;;;5.78;3.28;;;;;;;34.45;17.97;101191.38;5036335;28;20045;-83
2023/06/13 11:16:56;;;;;;;4.78;3.38;;;;;;;34.14;17.05;101198.66;5039672;28;20155;-82
2023/06/13 11:19:23;;;;;;;6.82;3.65;;;;;;;34.03;17.78;101208.78;5038289;28;20041;-82
2023/06/13 11:22:05;;;;;;;7.10;3.65;;;;;;;33.77;17.84;101210.53;5034408;28;20438;-82
2023/06/13 11:24:32;;;;;;;7.10;3.88;;;;;;;33.98;17.68;101212.34;5034320;28;20026;-82